AirNav   Air Wisconsin pilot careers
 
 361 users online  

N88 Kecks Airport
Julian, North Carolina, USA

GOING TO JULIAN?


FAA INFORMATION EFFECTIVE 09 NOVEMBER 2017

Location

FAA Identifier: N88
Lat/Long: 35-55-35.4900N / 079-37-39.0900W
35-55.591500N / 079-37.651500W
35.9265250 / -79.6275250
(estimated)
Elevation: 724 ft. / 220.7 m (surveyed)
Variation: 06W (1985)
From city: 2 miles NE of JULIAN, NC
Time zone: UTC -5 (UTC -4 during Daylight Saving Time)
Zip code: 27283

Airport Operations

Airport use: Open to the public
Activation date: 07/1953
Control tower: no
ARTCC: ATLANTA CENTER
FSS: RALEIGH FLIGHT SERVICE STATION
NOTAMs facility: RDU (NOTAM-D service available)
Attendance: UNATNDD
Wind indicator: yes
Segmented circle: no

Airport Communications

CTAF: 122.9
WX ASOS at BUY (11 nm NE): 135.325 (336-570-9813)
WX AWOS-3 at SCR (15 nm SE): 125.775 (919-663-1252)
WX ASOS at GSO (18 nm NW): PHONE 336-393-0168

Nearby radio navigation aids

VOR radial/distance  VOR name  Freq  Var
LIBr357/6.9LIBERTY VORTAC113.0003W
GSOr116/18.4GREENSBORO VORTAC116.2003W

 
NDB name  Hdg/Dist  Freq  Var  ID
ALAMM222/3.736108WHB .... -...
SLAMMER174/28.142307WSIF ... .. ..-.
PERSON244/32.922008WHUR .... ..- .-.

Airport Services

Parking: tiedowns
Airframe service: NONE
Powerplant service: NONE
Bottled oxygen: NONE
Bulk oxygen: NONE

Runway Information

Runway 5/23

Dimensions: 1400 x 75 ft. / 427 x 23 m
Surface: turf, in good condition
RUNWAY 5  RUNWAY 23
Traffic pattern: leftleft
Obstructions: 31 ft. trees, 639 ft. from runway, 42 ft. right of centerline, 20:1 slope to clear36 ft. pline, 776 ft. from runway, 21:1 slope to clear
PLINE 780 FT FM THR.

Airport Ownership and Management from official FAA records

Ownership: Privately-owned
Owner: L. R. KECK
2416 N.C. 62E
JULIAN, NC 27283
Phone (336) 685-4488
Manager: L.R. KECK
2416 N.C. 62E
JULIAN, NC 27283
Phone (336) 685-4488

Airport Operational Statistics

Aircraft based on the field: 1
Single engine airplanes: 1
    
Aircraft operations: avg 27/month *
62% transient general aviation
38% local general aviation
* for 12-month period ending 12 June 2015

Additional Remarks

BLDGS ON NW EDGE OF RY.
AGRICULTURAL EQUIPMENT OCNLY ON RY.
4' LIVESTOCK FENCE BELOW RWY GRADE ACROSS END OF EACH RWY
ARPT IN TRAFFIC PAT OF CAUSEY ARPT 2A5 (1 MI NW) CTAF: 122.8

Instrument Procedures

There are no published instrument procedures at N88.

Some nearby airports with instrument procedures:

2A5 - Causey Airport (1 nm SE)
KBUY - Burlington-Alamance Regional Airport (11 nm NE)
KSCR - Siler City Municipal Airport (15 nm SE)
KGSO - Piedmont Triad International Airport (18 nm NW)
KHBI - Asheboro Regional Airport (21 nm SW)
 
Loc | Ops | Rwys | IFR | FBO | Links
Com | Nav | Svcs | Stats | Notes


 
Area around N88 (Kecks Airport)
 
Road maps at: MapQuest Bing Google
 
Aerial photo
No photo
 
Sectional chart

 
Airport distance calculator
Flying to Kecks Airport? Find the distance to fly.

From to N88

Sunrise and sunset
Times for 20-Nov-2017
 Local
(UTC-5)
 Zulu
(UTC)
Morning civil twilight06:3311:33
Sunrise07:0112:01
Sunset17:0722:07
Evening civil twilight17:3522:35

Current date and time
Zulu (UTC)  20-Nov-2017 08:04:17
Local (UTC-5)  20-Nov-2017 03:04:17
 
METAR
KBUY 
11nm NE 
200754Z AUTO 00000KT 10SM CLR M03/M03 A3012 RMK AO2 SLP203 T10281033
KSCR 
15nm SE 
200740Z AUTO 00000KT 10SM CLR M03/M04 A3012 RMK AO2 T10331045
KGSO 
19nm NW 
200754Z 32004KT 10SM CLR 00/M04 A3011 RMK AO2 SLP201 T00001039 $
KHBI 
21nm SW 
200755Z AUTO 00000KT 10SM CLR M01/M03 A3015 RMK AO2 T10111034
TAF
KGSO 
19nm NW 
200532Z 2006/2106 31007KT P6SM SKC
NOTAMs
Click for the latest NOTAMs
NOTAMs are issued by the DoD/FAA and will open in a separate window not controlled by AirNav.

 

 
 

Would you like to see your business listed on this page?

 If your business provides an interesting product or service to pilots, flight crews, aircraft, or users of the Kecks Airport, you should consider listing it here.  To start the listing process, click on the button below
 
Add a business
 

Other Pages about Kecks Airport

Update a link
 
Copyright © AirNav, LLC. All rights reserved. Privacy Policy  Contact